createdAt,value
2024-01-06T00:01:16.803Z,100115.34
2024-01-06T00:03:50.041Z,100111.78
2024-01-06T00:06:23.238Z,100119.97
2024-01-06T00:08:56.346Z,100132.91
2024-01-06T00:11:29.340Z,100138.00
2024-01-06T00:14:03.710Z,100142.69
2024-01-06T00:16:38.766Z,100144.16
2024-01-06T00:19:14.919Z,100145.38
2024-01-06T00:21:47.975Z,100139.34
2024-01-06T00:24:21.142Z,100135.75
2024-01-06T00:26:54.214Z,100143.13
2024-01-06T00:29:27.749Z,100140.72
2024-01-06T00:32:02.118Z,100141.06
2024-01-06T00:34:36.695Z,100140.03
2024-01-06T00:37:09.723Z,100144.38
2024-01-06T00:39:45.285Z,100138.91
2024-01-06T00:42:18.346Z,100143.56
2024-01-06T00:44:52.134Z,100151.16
2024-01-06T00:47:26.946Z,100149.78
2024-01-06T00:50:00.229Z,100157.13
2024-01-06T00:52:33.373Z,100156.50
2024-01-06T00:55:06.823Z,100153.50
2024-01-06T00:57:39.849Z,100159.69
2024-01-06T01:00:14.714Z,100160.59
2024-01-06T01:02:49.444Z,100161.94
2024-01-06T01:05:22.577Z,100169.84
2024-01-06T01:07:55.814Z,100168.72
2024-01-06T01:10:28.866Z,100168.84
2024-01-06T01:13:04.736Z,100173.38
2024-01-06T01:15:37.895Z,100169.72
2024-01-06T01:18:12.944Z,100176.09
2024-01-06T01:20:46.165Z,100176.97
2024-01-06T01:23:19.301Z,100190.41
2024-01-06T01:25:52.125Z,100193.38
2024-01-06T01:28:25.002Z,100194.00
2024-01-06T01:30:58.788Z,100192.78
2024-01-06T01:33:33.634Z,100192.78
2024-01-06T01:36:07.531Z,100195.22
2024-01-06T01:38:40.331Z,100205.44
2024-01-06T01:41:13.090Z,100198.22
2024-01-06T01:43:47.798Z,100212.53
2024-01-06T01:46:21.508Z,100214.16
2024-01-06T01:48:56.893Z,100218.34
2024-01-06T01:51:33.001Z,100218.88
2024-01-06T01:54:09.579Z,100215.41
2024-01-06T01:56:44.870Z,100209.53
2024-01-06T01:59:21.095Z,100210.28
2024-01-06T02:01:54.498Z,100217.69
2024-01-06T02:04:28.595Z,100217.06
2024-01-06T02:07:01.679Z,100220.66
2024-01-06T02:09:34.893Z,100224.25
2024-01-06T02:12:10.703Z,100223.69
2024-01-06T02:14:44.463Z,100232.28
2024-01-06T02:17:17.241Z,100231.53
2024-01-06T02:19:51.804Z,100229.84
2024-01-06T02:22:26.676Z,100236.00
2024-01-06T02:24:59.648Z,100234.97
2024-01-06T02:27:33.046Z,100233.19
2024-01-06T02:30:07.250Z,100238.97
2024-01-06T02:32:40.562Z,100249.00
2024-01-06T02:35:13.780Z,100253.66
2024-01-06T02:37:47.983Z,100256.97
2024-01-06T02:40:20.821Z,100259.38
2024-01-06T02:42:53.732Z,100262.84
2024-01-06T02:45:26.658Z,100267.19
2024-01-06T02:47:59.489Z,100261.94
2024-01-06T02:50:32.476Z,100266.09
2024-01-06T02:53:07.038Z,100265.75
2024-01-06T02:55:40.824Z,100266.91
2024-01-06T02:58:13.749Z,100272.81
2024-01-06T03:00:48.497Z,100271.75
2024-01-06T03:03:21.442Z,100270.25
2024-01-06T03:05:54.621Z,100270.72
2024-01-06T03:08:29.039Z,100264.69
2024-01-06T03:11:02.393Z,100280.53
2024-01-06T03:13:36.187Z,100272.25
2024-01-06T03:16:09.448Z,100273.28
2024-01-06T03:18:44.821Z,100283.50
2024-01-06T03:21:22.058Z,100285.19
2024-01-06T03:23:59.000Z,100280.97
2024-01-06T03:26:31.890Z,100273.13
2024-01-06T03:29:04.805Z,100288.34
2024-01-06T03:31:37.695Z,100284.88
2024-01-06T03:34:12.422Z,100287.31
2024-01-06T03:36:47.868Z,100274.94
2024-01-06T03:39:22.689Z,100292.25
2024-01-06T03:41:55.788Z,100284.56
2024-01-06T03:44:31.484Z,100291.50
2024-01-06T03:47:04.772Z,100297.69
2024-01-06T03:49:38.096Z,100305.03
2024-01-06T03:52:11.515Z,100293.16
2024-01-06T03:54:46.482Z,100299.63
2024-01-06T03:57:19.805Z,100300.59
2024-01-06T03:59:52.679Z,100303.09
2024-01-06T04:02:26.092Z,100307.91
2024-01-06T04:05:00.223Z,100320.38
2024-01-06T04:07:33.304Z,100324.94
2024-01-06T04:10:08.213Z,100314.84
2024-01-06T04:12:41.251Z,100322.66
2024-01-06T04:15:14.265Z,100329.28
2024-01-06T04:17:54.726Z,100332.59
2024-01-06T04:20:27.942Z,100329.41
2024-01-06T04:23:02.554Z,100323.13
2024-01-06T04:25:36.871Z,100323.84
2024-01-06T04:28:09.645Z,100328.38
2024-01-06T04:30:42.571Z,100321.88
2024-01-06T04:33:15.704Z,100331.22
2024-01-06T04:35:48.628Z,100332.88
2024-01-06T04:38:21.456Z,100339.81
2024-01-06T04:40:56.020Z,100338.28
2024-01-06T04:43:28.827Z,100344.31
2024-01-06T04:46:01.687Z,100345.53
2024-01-06T04:48:34.827Z,100349.13
2024-01-06T04:51:11.155Z,100358.94
2024-01-06T04:53:44.006Z,100362.22
2024-01-06T04:56:18.353Z,100368.84
2024-01-06T04:58:51.105Z,100379.97
2024-01-06T05:01:24.264Z,100380.72
2024-01-06T05:03:57.229Z,100383.75
2024-01-06T05:06:30.179Z,100377.28
2024-01-06T05:09:03.565Z,100388.56
2024-01-06T05:11:37.741Z,100382.25
2024-01-06T05:14:10.474Z,100378.31
2024-01-06T05:16:43.225Z,100382.69
2024-01-06T05:19:20.702Z,100382.25
2024-01-06T05:21:54.333Z,100386.75
2024-01-06T05:24:27.148Z,100390.22
2024-01-06T05:27:01.413Z,100392.34
2024-01-06T05:29:34.229Z,100397.03
2024-01-06T05:32:07.643Z,100404.81
2024-01-06T05:34:40.642Z,100409.03
2024-01-06T05:37:14.048Z,100413.09
2024-01-06T05:39:47.242Z,100416.25
2024-01-06T05:42:21.556Z,100421.53
2024-01-06T05:44:55.643Z,100419.56
2024-01-06T05:47:29.440Z,100430.72
2024-01-06T05:50:02.656Z,100426.81
2024-01-06T05:52:35.478Z,100436.00
2024-01-06T05:55:10.656Z,100440.38
2024-01-06T05:57:44.905Z,100442.78
2024-01-06T06:00:19.869Z,100454.19
2024-01-06T06:02:52.709Z,100456.31
2024-01-06T06:05:25.953Z,100466.22
2024-01-06T06:07:59.301Z,100467.13
2024-01-06T06:10:42.148Z,100471.78
2024-01-06T06:13:16.588Z,100475.84
2024-01-06T06:15:49.629Z,100480.97
2024-01-06T06:18:22.836Z,100484.47
2024-01-06T06:20:55.754Z,100493.31
2024-01-06T06:23:32.219Z,100503.84
2024-01-06T06:26:09.093Z,100503.84
2024-01-06T06:28:43.688Z,100509.56
2024-01-06T06:31:16.862Z,100516.03
2024-01-06T06:33:49.839Z,100516.63
2024-01-06T06:36:24.241Z,100522.94
2024-01-06T06:39:00.098Z,100519.34
2024-01-06T06:41:32.853Z,100528.22
2024-01-06T06:44:07.087Z,100530.03
2024-01-06T06:46:39.951Z,100520.56
2024-01-06T06:52:01.542Z,100534.84
2024-01-06T06:54:34.775Z,100541.16
2024-01-06T06:57:07.492Z,100548.41
2024-01-06T06:59:42.002Z,100559.53
2024-01-06T07:02:15.783Z,100555.16
2024-01-06T07:04:48.741Z,100567.34
2024-01-06T07:07:21.902Z,100573.53
2024-01-06T07:09:56.950Z,100569.47
2024-01-06T07:12:30.016Z,100567.81
2024-01-06T07:15:07.011Z,100572.63
2024-01-06T07:17:40.825Z,100565.56
2024-01-06T07:20:14.739Z,100579.69
2024-01-06T07:22:47.725Z,100577.88
2024-01-06T07:25:20.504Z,100588.41
2024-01-06T07:27:55.500Z,100593.09
2024-01-06T07:30:30.530Z,100594.88
2024-01-06T07:33:03.693Z,100603.63
2024-01-06T07:35:37.750Z,100606.16
2024-01-06T07:38:11.229Z,100601.06
2024-01-06T07:40:45.798Z,100603.63
2024-01-06T07:43:18.633Z,100607.53
2024-01-06T07:45:53.244Z,100613.41
2024-01-06T07:48:26.340Z,100612.50
2024-01-06T07:50:59.264Z,100618.50
2024-01-06T07:53:32.233Z,100615.66
2024-01-06T07:56:05.633Z,100625.75
2024-01-06T07:58:41.152Z,100636.88
2024-01-06T08:01:15.724Z,100638.22
2024-01-06T08:03:48.789Z,100643.19
2024-01-06T08:06:22.100Z,100650.59
2024-01-06T08:08:55.818Z,100656.28
2024-01-06T08:11:28.639Z,100657.69
2024-01-06T08:14:01.638Z,100655.13
2024-01-06T08:16:36.517Z,100659.91
2024-01-06T08:19:09.381Z,100669.22
2024-01-06T08:21:42.777Z,100669.22
2024-01-06T08:24:16.289Z,100666.84
2024-01-06T08:26:49.448Z,100680.22
2024-01-06T08:29:22.371Z,100682.63
2024-01-06T08:31:57.075Z,100688.03
2024-01-06T08:34:33.221Z,100690.78
2024-01-06T08:37:06.452Z,100696.66
2024-01-06T08:39:39.356Z,100698.88
2024-01-06T08:42:13.017Z,100715.88
2024-01-06T08:44:45.905Z,100718.03
2024-01-06T08:47:21.580Z,100717.56
2024-01-06T08:49:54.855Z,100724.06
2024-01-06T08:52:27.950Z,100734.44
2024-01-06T08:55:01.057Z,100733.09
2024-01-06T08:57:34.488Z,100742.25
2024-01-06T09:00:10.307Z,100736.25
2024-01-06T09:02:46.089Z,100741.81
2024-01-06T09:05:19.165Z,100745.88
2024-01-06T09:07:54.667Z,100754.31
2024-01-06T09:10:30.504Z,100758.69
2024-01-06T09:13:05.179Z,100764.53
2024-01-06T09:15:39.184Z,100768.63
2024-01-06T09:18:14.984Z,100774.78
2024-01-06T09:20:49.083Z,100774.03
2024-01-06T09:23:25.049Z,100772.53
2024-01-06T09:25:58.986Z,100777.50
2024-01-06T09:28:32.321Z,100786.84
2024-01-06T09:31:06.170Z,100789.69
2024-01-06T09:33:40.831Z,100787.91
2024-01-06T09:36:15.391Z,100792.84
2024-01-06T09:38:48.452Z,100801.44
2024-01-06T09:41:22.931Z,100801.78
2024-01-06T09:43:55.937Z,100808.56
2024-01-06T09:46:30.819Z,100816.84
2024-01-06T09:49:05.299Z,100821.81
2024-01-06T09:51:39.712Z,100823.03
2024-01-06T09:54:16.319Z,100820.00
2024-01-06T09:56:51.006Z,100820.78
2024-01-06T09:59:24.370Z,100815.81
2024-01-06T10:02:02.273Z,100817.16
2024-01-06T10:04:38.975Z,100817.25
2024-01-06T10:07:14.702Z,100823.78
2024-01-06T10:09:47.944Z,100830.09
2024-01-06T10:12:24.955Z,100824.22
2024-01-06T10:14:58.058Z,100832.06
2024-01-06T10:17:31.069Z,100840.94
2024-01-06T10:20:08.518Z,100836.91
2024-01-06T10:22:44.757Z,100844.41
2024-01-06T10:25:20.656Z,100845.78
2024-01-06T10:27:55.539Z,100844.72
2024-01-06T10:30:31.911Z,100848.34
2024-01-06T10:33:11.655Z,100848.47
2024-01-06T10:35:46.717Z,100854.81
2024-01-06T10:38:20.051Z,100846.06
2024-01-06T10:40:59.941Z,100853.44
2024-01-06T10:43:37.534Z,100853.91
2024-01-06T10:46:12.120Z,100863.66
2024-01-06T10:48:47.061Z,100856.16
2024-01-06T10:51:24.370Z,100860.50
2024-01-06T10:54:00.169Z,100862.78
2024-01-06T10:56:33.336Z,100867.16
2024-01-06T10:59:06.242Z,100861.28
2024-01-06T11:01:40.211Z,100873.78
2024-01-06T11:04:17.555Z,100857.34
2024-01-06T11:06:56.696Z,100873.53
2024-01-06T11:09:34.997Z,100864.66
2024-01-06T11:12:10.198Z,100866.88
2024-01-06T11:14:46.962Z,100868.69
2024-01-06T11:17:55.367Z,100862.66
2024-01-06T11:20:28.871Z,100873.94
2024-01-06T11:26:01.789Z,100881.63
2024-01-06T11:28:45.994Z,100879.06
2024-01-06T11:31:21.377Z,100880.09
2024-01-06T11:33:57.486Z,100878.00
2024-01-06T11:36:30.495Z,100870.91
2024-01-06T11:39:03.419Z,100878.38
2024-01-06T11:41:51.331Z,100881.09
2024-01-06T11:44:24.301Z,100886.38
2024-01-06T11:46:58.947Z,100877.47
2024-01-06T11:49:33.183Z,100887.28
2024-01-06T11:52:07.357Z,100877.03
2024-01-06T11:54:41.670Z,100880.41
2024-01-06T11:57:15.993Z,100880.78
2024-01-06T11:59:50.934Z,100888.00
2024-01-06T12:02:24.568Z,100878.66
2024-01-06T12:04:57.571Z,100883.34
2024-01-06T12:07:32.716Z,100880.19
2024-01-06T12:10:11.217Z,100884.09
2024-01-06T12:12:57.801Z,100884.69
2024-01-06T12:15:32.882Z,100888.75
2024-01-06T12:18:07.185Z,100892.19
2024-01-06T12:20:40.361Z,100895.03
2024-01-06T12:23:13.334Z,100899.84
2024-01-06T12:25:48.170Z,100899.09
2024-01-06T12:28:22.458Z,100904.75
2024-01-06T12:30:56.502Z,100904.16
2024-01-06T12:33:29.866Z,100908.28
2024-01-06T12:36:10.319Z,100912.28
2024-01-06T12:38:47.640Z,100909.84
2024-01-06T12:41:20.626Z,100918.31
2024-01-06T12:43:54.864Z,100915.44
2024-01-06T12:46:27.849Z,100916.94
2024-01-06T12:49:02.372Z,100926.28
2024-01-06T12:51:36.084Z,100930.22
2024-01-06T12:54:09.606Z,100925.69
2024-01-06T12:56:45.045Z,100943.59
2024-01-06T12:59:21.051Z,100932.28
2024-01-06T13:01:54.436Z,100938.06
2024-01-06T13:04:27.335Z,100938.16
2024-01-06T13:07:03.495Z,100948.88
2024-01-06T13:09:36.758Z,100935.50
2024-01-06T13:12:10.041Z,100946.66
2024-01-06T13:14:45.782Z,100937.31
2024-01-06T13:17:19.192Z,100944.25
2024-01-06T13:19:52.054Z,100950.13
2024-01-06T13:22:27.842Z,100958.88
2024-01-06T13:25:01.029Z,100946.53
2024-01-06T13:27:34.276Z,100962.16
2024-01-06T13:30:10.267Z,100957.63
2024-01-06T13:32:44.859Z,100958.34
2024-01-06T13:35:17.906Z,100974.28
2024-01-06T13:37:52.568Z,100975.56
2024-01-06T13:40:27.442Z,100985.19
2024-01-06T13:43:00.671Z,100988.50
2024-01-06T13:45:38.446Z,100994.19
2024-01-06T13:48:12.471Z,100995.03
2024-01-06T13:50:47.492Z,101001.81
2024-01-06T13:53:20.810Z,100996.25
2024-01-06T13:55:54.535Z,101003.13
2024-01-06T13:58:28.853Z,100999.50
2024-01-06T14:01:03.282Z,100998.19
2024-01-06T14:03:36.612Z,101004.63
2024-01-06T14:06:10.286Z,101001.06
2024-01-06T14:08:46.734Z,101009.09
2024-01-06T14:11:19.617Z,101018.00
2024-01-06T14:13:52.949Z,101014.38
2024-01-06T14:16:30.166Z,101020.25
2024-01-06T14:19:04.214Z,101026.25
2024-01-06T14:21:37.285Z,101033.41
2024-01-06T14:24:10.998Z,101029.22
2024-01-06T14:26:44.351Z,101035.75
2024-01-06T14:29:17.532Z,101036.06
2024-01-06T14:31:51.991Z,101047.13
2024-01-06T14:34:26.112Z,101046.22
2024-01-06T14:37:00.776Z,101051.47
2024-01-06T14:39:33.757Z,101055.38
2024-01-06T14:42:07.353Z,101055.63
2024-01-06T14:44:40.374Z,101064.09
2024-01-06T14:47:14.973Z,101065.84
2024-01-06T14:49:47.932Z,101077.47
2024-01-06T14:52:20.954Z,101077.56
2024-01-06T14:54:54.241Z,101082.53
2024-01-06T14:57:27.627Z,101087.72
2024-01-06T15:00:00.990Z,101083.75
2024-01-06T15:02:35.682Z,101088.63
2024-01-06T15:05:11.209Z,101102.41
2024-01-06T15:07:44.675Z,101092.59
2024-01-06T15:10:18.086Z,101108.44
2024-01-06T15:12:51.142Z,101113.88
2024-01-06T15:15:25.085Z,101112.38
2024-01-06T15:17:59.750Z,101109.34
2024-01-06T15:20:33.295Z,101118.66
2024-01-06T15:23:07.625Z,101120.72
2024-01-06T15:25:40.349Z,101127.41
2024-01-06T15:28:13.411Z,101127.66
2024-01-06T15:30:46.286Z,101136.06
2024-01-06T15:33:20.565Z,101142.41
2024-01-06T15:35:54.534Z,101144.31
2024-01-06T15:38:28.569Z,101146.28
2024-01-06T15:41:04.981Z,101151.16
2024-01-06T15:43:39.446Z,101154.88
2024-01-06T15:46:12.809Z,101161.81
2024-01-06T15:48:47.044Z,101143.75
2024-01-06T15:51:19.955Z,101166.41
2024-01-06T15:53:53.392Z,101163.34
2024-01-06T15:56:26.269Z,101162.78
2024-01-06T15:58:59.814Z,101176.13
2024-01-06T16:01:33.491Z,101185.28
2024-01-06T16:04:07.892Z,101178.34
2024-01-06T16:06:41.509Z,101193.34
2024-01-06T16:09:14.805Z,101196.06
2024-01-06T16:11:47.823Z,101205.63
2024-01-06T16:14:20.693Z,101201.66
2024-01-06T16:16:55.082Z,101198.22
2024-01-06T16:19:30.004Z,101207.19
2024-01-06T16:22:11.268Z,101205.53
2024-01-06T16:24:50.172Z,101210.97
2024-01-06T16:27:23.045Z,101206.72
2024-01-06T16:29:55.958Z,101211.88
2024-01-06T16:32:29.398Z,101222.97
2024-01-06T16:35:03.915Z,101230.97
2024-01-06T16:37:36.658Z,101225.69
2024-01-06T16:40:11.921Z,101215.44
2024-01-06T16:42:44.967Z,101224.38
2024-01-06T16:45:17.797Z,101231.47
2024-01-06T16:47:50.930Z,101229.06
2024-01-06T16:50:25.359Z,101232.50
2024-01-06T16:52:58.083Z,101234.91
2024-01-06T16:55:31.040Z,101240.00
2024-01-06T16:58:04.068Z,101242.06
2024-01-06T17:00:37.178Z,101246.44
2024-01-06T17:03:10.184Z,101250.28
2024-01-06T17:05:44.569Z,101245.56
2024-01-06T17:08:17.407Z,101244.81
2024-01-06T17:10:50.278Z,101253.75
2024-01-06T17:13:23.475Z,101249.19
2024-01-06T17:15:57.074Z,101261.25
2024-01-06T17:18:30.189Z,101268.38
2024-01-06T17:21:04.912Z,101274.94
2024-01-06T17:23:37.760Z,101272.91
2024-01-06T17:26:10.490Z,101286.44
2024-01-06T17:28:43.395Z,101280.03
2024-01-06T17:31:16.226Z,101287.88
2024-01-06T17:33:51.408Z,101281.25
2024-01-06T17:36:25.891Z,101291.16
2024-01-06T17:38:58.802Z,101298.84
2024-01-06T17:41:35.220Z,101301.16
2024-01-06T17:44:10.721Z,101309.41
2024-01-06T17:46:43.855Z,101299.34
2024-01-06T17:49:16.814Z,101311.16
2024-01-06T17:51:51.385Z,101310.97
2024-01-06T17:54:24.271Z,101312.22
2024-01-06T17:57:02.196Z,101308.25
2024-01-06T17:59:36.725Z,101314.94
2024-01-06T18:02:10.737Z,101327.25
2024-01-06T18:04:43.962Z,101321.22
2024-01-06T18:07:18.634Z,101329.63
2024-01-06T18:09:51.629Z,101325.66
2024-01-06T18:12:24.779Z,101327.47
2024-01-06T18:14:57.518Z,101328.22
2024-01-06T18:17:30.905Z,101332.81
2024-01-06T18:20:04.771Z,101340.16
2024-01-06T18:22:39.284Z,101339.00
2024-01-06T18:25:13.294Z,101345.47
2024-01-06T18:27:46.693Z,101346.03
2024-01-06T18:30:19.850Z,101351.13
2024-01-06T18:32:53.268Z,101352.94
2024-01-06T18:35:27.501Z,101363.91
2024-01-06T18:38:02.355Z,101352.94
2024-01-06T18:40:36.156Z,101369.19
2024-01-06T18:43:09.024Z,101356.91
2024-01-06T18:45:43.578Z,101366.97
2024-01-06T18:48:18.753Z,101357.66
2024-01-06T18:50:52.701Z,101372.84
2024-01-06T18:53:29.199Z,101362.78
2024-01-06T18:56:03.001Z,101375.78
2024-01-06T18:58:36.111Z,101377.78
2024-01-06T19:01:10.379Z,101379.59
2024-01-06T19:03:44.848Z,101380.50
2024-01-06T19:06:18.633Z,101386.69
2024-01-06T19:08:53.078Z,101385.03
2024-01-06T19:11:26.062Z,101391.06
2024-01-06T19:13:59.098Z,101396.19
2024-01-06T19:16:31.987Z,101398.41
2024-01-06T19:19:05.703Z,101398.41
2024-01-06T19:21:38.814Z,101402.94
2024-01-06T19:24:19.943Z,101406.75
2024-01-06T19:26:59.470Z,101415.34
2024-01-06T19:29:32.399Z,101415.84
2024-01-06T19:32:08.014Z,101416.41
2024-01-06T19:34:42.005Z,101421.97
2024-01-06T19:37:15.516Z,101429.59
2024-01-06T19:39:49.743Z,101431.09
2024-01-06T19:42:22.610Z,101419.31
2024-01-06T19:44:56.521Z,101427.06
2024-01-06T19:47:30.360Z,101435.81
2024-01-06T19:50:04.582Z,101429.25
2024-01-06T19:52:38.119Z,101438.00
2024-01-06T19:55:13.098Z,101448.41
2024-01-06T19:57:46.162Z,101443.13
2024-01-06T20:00:20.556Z,101447.69
2024-01-06T20:02:54.369Z,101452.63
2024-01-06T20:05:27.432Z,101460.69
2024-01-06T20:08:00.541Z,101450.47
2024-01-06T20:10:35.147Z,101466.53
2024-01-06T20:13:09.599Z,101468.72
2024-01-06T20:15:46.714Z,101472.75
2024-01-06T20:18:20.192Z,101472.53
2024-01-06T20:20:55.566Z,101476.56
2024-01-06T20:23:28.505Z,101478.59
2024-01-06T20:26:04.013Z,101475.06
2024-01-06T20:28:38.342Z,101481.84
2024-01-06T20:31:12.603Z,101482.75
2024-01-06T20:33:47.113Z,101480.72
2024-01-06T20:36:20.324Z,101484.56
2024-01-06T20:38:53.761Z,101481.84
2024-01-06T20:41:28.088Z,101485.31
2024-01-06T20:44:02.597Z,101483.66
2024-01-06T20:46:36.945Z,101488.78
2024-01-06T20:49:10.120Z,101486.59
2024-01-06T20:51:43.497Z,101488.38
2024-01-06T20:54:16.288Z,101495.53
2024-01-06T20:56:50.912Z,101488.44
2024-01-06T20:59:23.904Z,101489.34
2024-01-06T21:01:56.946Z,101497.16
2024-01-06T21:04:30.153Z,101485.09
2024-01-06T21:07:02.947Z,101483.28
2024-01-06T21:09:35.937Z,101488.56
2024-01-06T21:12:10.508Z,101491.72
2024-01-06T21:14:48.882Z,101497.19
2024-01-06T21:17:21.903Z,101500.09
2024-01-06T21:19:55.780Z,101505.00
2024-01-06T21:22:29.222Z,101504.47
2024-01-06T21:25:02.448Z,101507.19
2024-01-06T21:27:36.829Z,101512.13
2024-01-06T21:30:10.702Z,101513.03
2024-01-06T21:32:44.938Z,101515.41
2024-01-06T21:35:17.918Z,101520.56
2024-01-06T21:37:50.874Z,101531.00
2024-01-06T21:40:25.800Z,101532.88
2024-01-06T21:43:00.479Z,101533.59
2024-01-06T21:45:33.930Z,101546.41
2024-01-06T21:48:07.697Z,101541.66
2024-01-06T21:50:41.248Z,101540.00
2024-01-06T21:53:14.304Z,101539.47
2024-01-06T21:55:47.082Z,101546.59
2024-01-06T21:58:21.537Z,101554.28
2024-01-06T22:00:55.864Z,101557.56
2024-01-06T22:03:31.152Z,101545.53
2024-01-06T22:06:04.464Z,101551.91
2024-01-06T22:08:37.461Z,101553.56
2024-01-06T22:11:10.268Z,101547.19
2024-01-06T22:13:44.661Z,101559.94
2024-01-06T22:16:18.465Z,101557.38
2024-01-06T22:18:51.581Z,101553.91
2024-01-06T22:21:24.863Z,101557.91
2024-01-06T22:23:59.648Z,101550.41
2024-01-06T22:26:32.590Z,101550.78
2024-01-06T22:29:07.795Z,101562.28
2024-01-06T22:31:45.297Z,101563.56
2024-01-06T22:34:18.990Z,101563.16
2024-01-06T22:36:51.994Z,101561.00
2024-01-06T22:39:27.556Z,101563.00
2024-01-06T22:42:00.407Z,101567.38
2024-01-06T22:44:34.813Z,101571.41
2024-01-06T22:47:07.826Z,101576.47
2024-01-06T22:49:40.871Z,101579.94
2024-01-06T22:52:13.913Z,101584.50
2024-01-06T22:54:46.841Z,101594.00
2024-01-06T22:57:20.068Z,101592.19
2024-01-06T22:59:54.666Z,101595.09
2024-01-06T23:02:27.484Z,101596.94
2024-01-06T23:05:00.654Z,101590.56
2024-01-06T23:07:35.263Z,101598.94
2024-01-06T23:10:09.734Z,101602.44
2024-01-06T23:12:42.951Z,101603.72
2024-01-06T23:15:17.330Z,101618.53
2024-01-06T23:17:51.082Z,101614.50
2024-01-06T23:20:24.637Z,101617.97
2024-01-06T23:23:00.271Z,101621.81
2024-01-06T23:25:33.551Z,101631.69
2024-01-06T23:28:07.182Z,101627.84
2024-01-06T23:30:44.113Z,101630.78
2024-01-06T23:33:17.178Z,101637.94
2024-01-06T23:35:50.324Z,101638.81
2024-01-06T23:38:23.161Z,101642.66
2024-01-06T23:40:58.808Z,101648.34
2024-01-06T23:43:31.933Z,101651.06
2024-01-06T23:46:06.704Z,101645.97
2024-01-06T23:48:40.058Z,101648.16
2024-01-06T23:51:17.842Z,101652.53
2024-01-06T23:53:53.799Z,101663.66
2024-01-06T23:56:27.769Z,101662.56
2024-01-06T23:59:01.204Z,101664.94
